sensor_id;sensor_type;location;lat;lon;timestamp;pressure;altitude;pressure_sealevel;temperature;humidity
68145;BME280;55400;51.824;-0.196;2023-03-20T00:03:18;100804.26;;;9.57;60.76
68145;BME280;55400;51.824;-0.196;2023-03-20T00:07:18;100804.26;;;9.51;60.83
68145;BME280;55400;51.824;-0.196;2023-03-20T00:11:24;100820.20999999999;;;9.50;60.50
68145;BME280;55400;51.824;-0.196;2023-03-20T00:15:22;100820.20999999999;;;9.44;60.50
68145;BME280;55400;51.824;-0.196;2023-03-20T00:19:19;100836.86;;;9.42;60.39
68145;BME280;55400;51.824;-0.196;2023-03-20T00:27:18;100830.44;;;9.46;60.41
68145;BME280;55400;51.824;-0.196;2023-03-20T00:31:21;100830.44;;;9.43;60.86
68145;BME280;55400;51.824;-0.196;2023-03-20T00:35:20;100822.92;;;9.39;59.31
68145;BME280;55400;51.824;-0.196;2023-03-20T00:39:19;100815.89;;;9.37;59.46
68145;BME280;55400;51.824;-0.196;2023-03-20T00:43:18;100815.89;;;9.36;59.24
68145;BME280;55400;51.824;-0.196;2023-03-20T00:47:19;100813.2;;;9.30;59.75
68145;BME280;55400;51.824;-0.196;2023-03-20T00:51:19;100812.78;;;9.27;59.92
68145;BME280;55400;51.824;-0.196;2023-03-20T00:55:19;100812.78;;;9.24;59.92
68145;BME280;55400;51.824;-0.196;2023-03-20T00:59:19;100808.94;;;9.17;60.44
68145;BME280;55400;51.824;-0.196;2023-03-20T01:03:20;100808.94;;;9.13;60.44
68145;BME280;55400;51.824;-0.196;2023-03-20T01:07:19;100810.02;;;9.15;60.25
68145;BME280;55400;51.824;-0.196;2023-03-20T01:11:21;100800.36;;;9.08;60.28
68145;BME280;55400;51.824;-0.196;2023-03-20T01:15:20;100799.17;;;9.09;60.33
68145;BME280;55400;51.824;-0.196;2023-03-20T01:19:18;100799.17;;;9.06;60.35
68145;BME280;55400;51.824;-0.196;2023-03-20T01:23:19;100796.2;;;9.10;60.65
68145;BME280;55400;51.824;-0.196;2023-03-20T01:27:19;100796.2;;;9.15;60.65
68145;BME280;55400;51.824;-0.196;2023-03-20T01:31:19;100786.11;;;9.10;60.95
68145;BME280;55400;51.824;-0.196;2023-03-20T01:35:20;100781.31;;;9.13;61.04
68145;BME280;55400;51.824;-0.196;2023-03-20T01:39:19;100781.31;;;9.11;60.99
68145;BME280;55400;51.824;-0.196;2023-03-20T01:43:19;100786.35;;;9.12;60.55
68145;BME280;55400;51.824;-0.196;2023-03-20T01:47:19;100790.14;;;9.02;60.76
68145;BME280;55400;51.824;-0.196;2023-03-20T01:51:19;100788.64;;;9.03;60.76
68145;BME280;55400;51.824;-0.196;2023-03-20T01:55:19;100786.39;;;9.04;60.93
68145;BME280;55400;51.824;-0.196;2023-03-20T01:59:20;100786.89;;;9.07;60.89
68145;BME280;55400;51.824;-0.196;2023-03-20T02:03:19;100786.89;;;9.04;60.89
68145;BME280;55400;51.824;-0.196;2023-03-20T02:07:19;100775.83;;;9.00;61.29
68145;BME280;55400;51.824;-0.196;2023-03-20T02:11:20;100760.92;;;8.97;61.52
68145;BME280;55400;51.824;-0.196;2023-03-20T02:15:19;100760.92;;;9.00;61.83
68145;BME280;55400;51.824;-0.196;2023-03-20T02:19:22;100755.11;;;8.96;62.00
68145;BME280;55400;51.824;-0.196;2023-03-20T02:23:26;100751.34000000001;;;8.95;62.29
68145;BME280;55400;51.824;-0.196;2023-03-20T02:27:21;100751.34000000001;;;8.96;62.45
68145;BME280;55400;51.824;-0.196;2023-03-20T02:31:24;100738.68;;;8.99;62.70
68145;BME280;55400;51.824;-0.196;2023-03-20T02:35:25;100730.36;;;8.98;62.77
68145;BME280;55400;51.824;-0.196;2023-03-20T02:43:19;100718.58;;;9.03;62.81
68145;BME280;55400;51.824;-0.196;2023-03-20T02:47:20;100716.63;;;8.99;62.81
68145;BME280;55400;51.824;-0.196;2023-03-20T02:51:20;100715.69;;;8.96;63.09
68145;BME280;55400;51.824;-0.196;2023-03-20T02:55:19;100707.48;;;8.98;63.09
68145;BME280;55400;51.824;-0.196;2023-03-20T02:59:21;100708.18000000001;;;9.01;63.12
68145;BME280;55400;51.824;-0.196;2023-03-20T03:03:19;100693.78;;;8.93;63.12
68145;BME280;55400;51.824;-0.196;2023-03-20T03:07:19;100692.98999999999;;;8.90;63.36
68145;BME280;55400;51.824;-0.196;2023-03-20T03:11:19;100690.65000000001;;;8.88;63.46
68145;BME280;55400;51.824;-0.196;2023-03-20T03:15:20;100693.84;;;8.86;63.77
68145;BME280;55400;51.824;-0.196;2023-03-20T03:23:21;100698.78;;;8.87;64.17
68145;BME280;55400;51.824;-0.196;2023-03-20T03:27:19;100692.66;;;8.85;64.17
68145;BME280;55400;51.824;-0.196;2023-03-20T03:31:19;100691.66;;;8.83;64.91
68145;BME280;55400;51.824;-0.196;2023-03-20T03:39:21;100692.57;;;8.79;65.29
68145;BME280;55400;51.824;-0.196;2023-03-20T03:43:20;100684.22;;;8.83;65.27
68145;BME280;55400;51.824;-0.196;2023-03-20T03:47:20;100676.76;;;8.77;65.27
68145;BME280;55400;51.824;-0.196;2023-03-20T03:51:20;100678.78;;;8.82;65.75
68145;BME280;55400;51.824;-0.196;2023-03-20T03:55:20;100690.23;;;8.83;65.57
68145;BME280;55400;51.824;-0.196;2023-03-20T03:59:20;100685.13;;;8.82;65.79
68145;BME280;55400;51.824;-0.196;2023-03-20T04:03:20;100685.13;;;8.84;66.15
68145;BME280;55400;51.824;-0.196;2023-03-20T04:07:19;100664.69;;;8.87;66.20
68145;BME280;55400;51.824;-0.196;2023-03-20T04:15:19;100666.08;;;8.85;66.23
68145;BME280;55400;51.824;-0.196;2023-03-20T04:27:19;100661.73999999999;;;8.84;66.57
68145;BME280;55400;51.824;-0.196;2023-03-20T04:35:19;100656.66;;;8.86;66.64
68145;BME280;55400;51.824;-0.196;2023-03-20T04:39:19;100656.66;;;8.89;66.80
68145;BME280;55400;51.824;-0.196;2023-03-20T04:43:19;100660.92;;;8.91;66.70
68145;BME280;55400;51.824;-0.196;2023-03-20T04:47:19;100660.92;;;8.93;66.79
68145;BME280;55400;51.824;-0.196;2023-03-20T04:51:19;100652.04;;;8.91;66.88
68145;BME280;55400;51.824;-0.196;2023-03-20T04:55:19;100652.04;;;8.95;66.88
68145;BME280;55400;51.824;-0.196;2023-03-20T05:03:19;100644.44;;;8.99;66.89
68145;BME280;55400;51.824;-0.196;2023-03-20T05:07:19;100644.44;;;8.96;66.89
68145;BME280;55400;51.824;-0.196;2023-03-20T05:11:19;100636.3;;;8.95;66.79
68145;BME280;55400;51.824;-0.196;2023-03-20T05:15:19;100638.01999999999;;;8.97;67.04
68145;BME280;55400;51.824;-0.196;2023-03-20T05:19:19;100639.17;;;9.01;67.26
68145;BME280;55400;51.824;-0.196;2023-03-20T05:23:19;100639.17;;;9.00;67.20
68145;BME280;55400;51.824;-0.196;2023-03-20T05:35:19;100641.09;;;9.05;67.70
68145;BME280;55400;51.824;-0.196;2023-03-20T05:39:19;100633.83;;;9.07;67.70
68145;BME280;55400;51.824;-0.196;2023-03-20T05:43:19;100635.65999999999;;;9.11;67.96
68145;BME280;55400;51.824;-0.196;2023-03-20T05:51:19;100647.61;;;9.13;68.23
68145;BME280;55400;51.824;-0.196;2023-03-20T05:59:19;100641.76999999999;;;9.10;68.63
68145;BME280;55400;51.824;-0.196;2023-03-20T06:03:19;100640.17;;;9.09;68.63
68145;BME280;55400;51.824;-0.196;2023-03-20T06:07:19;100640.17;;;9.06;68.20
68145;BME280;55400;51.824;-0.196;2023-03-20T06:11:19;100644.16;;;9.02;68.63
68145;BME280;55400;51.824;-0.196;2023-03-20T06:15:19;100645.23000000001;;;9.04;69.07
68145;BME280;55400;51.824;-0.196;2023-03-20T06:19:19;100647.6;;;9.00;68.73
68145;BME280;55400;51.824;-0.196;2023-03-20T06:23:20;100649.44;;;8.97;68.48
68145;BME280;55400;51.824;-0.196;2023-03-20T06:27:19;100649.44;;;8.92;69.25
68145;BME280;55400;51.824;-0.196;2023-03-20T06:31:19;100646.40000000001;;;8.90;70.59
68145;BME280;55400;51.824;-0.196;2023-03-20T06:35:19;100646.40000000001;;;8.95;70.59
68145;BME280;55400;51.824;-0.196;2023-03-20T06:43:19;100654.93000000001;;;8.92;71.14
68145;BME280;55400;51.824;-0.196;2023-03-20T06:47:19;100654.65000000001;;;8.90;69.88
68145;BME280;55400;51.824;-0.196;2023-03-20T06:51:20;100648.95;;;8.87;70.18
68145;BME280;55400;51.824;-0.196;2023-03-20T06:55:19;100647.13;;;8.86;71.69
68145;BME280;55400;51.824;-0.196;2023-03-20T06:59:19;100647.13;;;8.90;71.69
68145;BME280;55400;51.824;-0.196;2023-03-20T07:03:19;100643.62999999999;;;8.93;71.40
68145;BME280;55400;51.824;-0.196;2023-03-20T07:07:20;100643.62999999999;;;8.99;72.22
68145;BME280;55400;51.824;-0.196;2023-03-20T07:11:19;100639.59;;;9.03;72.14
68145;BME280;55400;51.824;-0.196;2023-03-20T07:15:20;100650.08;;;9.07;72.10
68145;BME280;55400;51.824;-0.196;2023-03-20T07:19:19;100664.17;;;9.14;72.36
68145;BME280;55400;51.824;-0.196;2023-03-20T07:27:20;100661.89;;;9.15;72.32
68145;BME280;55400;51.824;-0.196;2023-03-20T07:35:20;100650.2;;;9.21;73.52
68145;BME280;55400;51.824;-0.196;2023-03-20T07:39:20;100649.08;;;9.22;73.71
68145;BME280;55400;51.824;-0.196;2023-03-20T07:43:20;100655.19;;;9.24;73.55
68145;BME280;55400;51.824;-0.196;2023-03-20T07:47:20;100655.19;;;9.30;73.55
68145;BME280;55400;51.824;-0.196;2023-03-20T07:51:20;100659.84999999999;;;9.35;73.84
68145;BME280;55400;51.824;-0.196;2023-03-20T07:55:20;100659.84999999999;;;9.39;73.84
68145;BME280;55400;51.824;-0.196;2023-03-20T07:59:20;100658.37;;;9.47;73.79
68145;BME280;55400;51.824;-0.196;2023-03-20T08:03:20;100661.15999999999;;;9.48;73.54
68145;BME280;55400;51.824;-0.196;2023-03-20T08:07:20;100657.23000000001;;;9.50;73.99
68145;BME280;55400;51.824;-0.196;2023-03-20T08:11:20;100657.23000000001;;;9.53;73.99
68145;BME280;55400;51.824;-0.196;2023-03-20T08:15:20;100657.17;;;9.56;73.98
68145;BME280;55400;51.824;-0.196;2023-03-20T08:19:20;100654.47;;;9.58;75.27
68145;BME280;55400;51.824;-0.196;2023-03-20T08:27:20;100650.76000000001;;;9.62;75.38
68145;BME280;55400;51.824;-0.196;2023-03-20T08:31:20;100649.73;;;9.69;75.04
68145;BME280;55400;51.824;-0.196;2023-03-20T08:35:20;100643.08;;;9.76;75.04
68145;BME280;55400;51.824;-0.196;2023-03-20T08:39:20;100643.08;;;9.74;75.04
68145;BME280;55400;51.824;-0.196;2023-03-20T08:43:20;100651.05;;;9.76;75.96
68145;BME280;55400;51.824;-0.196;2023-03-20T08:47:20;100651.05;;;9.74;75.96
68145;BME280;55400;51.824;-0.196;2023-03-20T08:51:20;100652.81;;;9.78;75.63
68145;BME280;55400;51.824;-0.196;2023-03-20T08:55:20;100659.28;;;9.83;75.36
68145;BME280;55400;51.824;-0.196;2023-03-20T08:59:20;100660.89;;;9.87;75.36
68145;BME280;55400;51.824;-0.196;2023-03-20T09:03:20;100660.89;;;9.88;75.40
68145;BME280;55400;51.824;-0.196;2023-03-20T09:15:20;100669.31;;;9.92;76.19
68145;BME280;55400;51.824;-0.196;2023-03-20T09:19:20;100664.26;;;10.00;76.23
68145;BME280;55400;51.824;-0.196;2023-03-20T09:23:20;100663.28;;;10.07;76.40
68145;BME280;55400;51.824;-0.196;2023-03-20T09:27:20;100658.98999999999;;;10.10;76.65
68145;BME280;55400;51.824;-0.196;2023-03-20T09:31:20;100663.86;;;10.17;76.69
68145;BME280;55400;51.824;-0.196;2023-03-20T09:35:20;100666.45999999999;;;10.21;77.15
68145;BME280;55400;51.824;-0.196;2023-03-20T09:39:20;100665.84;;;10.28;76.80
68145;BME280;55400;51.824;-0.196;2023-03-20T09:43:24;100665.84;;;10.35;76.64
68145;BME280;55400;51.824;-0.196;2023-03-20T09:47:21;100666.18999999999;;;10.42;77.36
68145;BME280;55400;51.824;-0.196;2023-03-20T09:51:22;100668.31;;;10.47;76.37
68145;BME280;55400;51.824;-0.196;2023-03-20T09:55:20;100668.08;;;10.52;76.30
68145;BME280;55400;51.824;-0.196;2023-03-20T09:59:20;100670.56;;;10.59;76.40
68145;BME280;55400;51.824;-0.196;2023-03-20T10:03:21;100663.65;;;10.62;76.60
68145;BME280;55400;51.824;-0.196;2023-03-20T10:07:20;100663.65;;;10.68;76.79
68145;BME280;55400;51.824;-0.196;2023-03-20T10:11:25;100661.3;;;10.76;76.67
68145;BME280;55400;51.824;-0.196;2023-03-20T10:15:23;100661.3;;;10.83;76.84
68145;BME280;55400;51.824;-0.196;2023-03-20T10:19:21;100658.79;;;10.95;76.45
68145;BME280;55400;51.824;-0.196;2023-03-20T10:23:22;100670.24;;;10.97;76.93
68145;BME280;55400;51.824;-0.196;2023-03-20T10:27:21;100670.24;;;11.00;76.93
68145;BME280;55400;51.824;-0.196;2023-03-20T10:31:23;100671.42;;;11.05;76.36
68145;BME280;55400;51.824;-0.196;2023-03-20T10:35:21;100660.46;;;11.12;76.62
68145;BME280;55400;51.824;-0.196;2023-03-20T10:39:23;100660.6;;;11.16;76.52
68145;BME280;55400;51.824;-0.196;2023-03-20T10:43:21;100660.6;;;11.23;76.29
68145;BME280;55400;51.824;-0.196;2023-03-20T10:47:20;100661.72;;;11.32;76.17
68145;BME280;55400;51.824;-0.196;2023-03-20T10:51:21;100662.65;;;11.34;76.65
68145;BME280;55400;51.824;-0.196;2023-03-20T10:55:21;100662.65;;;11.35;76.65
68145;BME280;55400;51.824;-0.196;2023-03-20T10:59:21;100665.55;;;11.37;76.16
68145;BME280;55400;51.824;-0.196;2023-03-20T11:03:21;100661.28;;;11.43;76.30
68145;BME280;55400;51.824;-0.196;2023-03-20T11:07:22;100663.14;;;11.48;76.66
68145;BME280;55400;51.824;-0.196;2023-03-20T11:11:21;100663.14;;;11.43;76.29
68145;BME280;55400;51.824;-0.196;2023-03-20T11:15:21;100664.78;;;11.48;76.54
68145;BME280;55400;51.824;-0.196;2023-03-20T11:19:21;100664.78;;;11.44;76.54
68145;BME280;55400;51.824;-0.196;2023-03-20T11:23:23;100664.4;;;11.41;76.73
68145;BME280;55400;51.824;-0.196;2023-03-20T11:27:23;100664.4;;;11.39;77.07
68145;BME280;55400;51.824;-0.196;2023-03-20T11:31:23;100670.59000000001;;;11.35;76.93
68145;BME280;55400;51.824;-0.196;2023-03-20T11:35:21;100667.35;;;11.32;77.16
68145;BME280;55400;51.824;-0.196;2023-03-20T11:39:21;100656.53;;;11.29;77.08
68145;BME280;55400;51.824;-0.196;2023-03-20T11:47:21;100658.58;;;11.32;78.33
68145;BME280;55400;51.824;-0.196;2023-03-20T11:51:20;100658.58;;;11.38;77.34
68145;BME280;55400;51.824;-0.196;2023-03-20T11:55:22;100648.32;;;11.48;77.83
68145;BME280;55400;51.824;-0.196;2023-03-20T11:59:20;100655.86;;;11.59;76.90
68145;BME280;55400;51.824;-0.196;2023-03-20T12:07:21;100652.09999999999;;;11.69;76.76
68145;BME280;55400;51.824;-0.196;2023-03-20T12:11:29;100652.09999999999;;;11.73;76.76
68145;BME280;55400;51.824;-0.196;2023-03-20T12:15:21;100647.55;;;11.74;76.87
68145;BME280;55400;51.824;-0.196;2023-03-20T12:19:22;100649.81;;;11.79;77.03
68145;BME280;55400;51.824;-0.196;2023-03-20T12:23:21;100649.81;;;11.74;76.67
68145;BME280;55400;51.824;-0.196;2023-03-20T12:27:22;100641.11;;;11.77;77.05
68145;BME280;55400;51.824;-0.196;2023-03-20T12:31:22;100643.26999999999;;;11.78;77.09
68145;BME280;55400;51.824;-0.196;2023-03-20T12:35:21;100643.29000000001;;;11.82;77.15
68145;BME280;55400;51.824;-0.196;2023-03-20T12:39:21;100636.44;;;11.85;77.03
68145;BME280;55400;51.824;-0.196;2023-03-20T12:47:24;100643.44;;;11.88;77.02
68145;BME280;55400;51.824;-0.196;2023-03-20T12:51:22;100632.15;;;11.87;77.03
68145;BME280;55400;51.824;-0.196;2023-03-20T12:55:23;100632.15;;;11.89;77.03
68145;BME280;55400;51.824;-0.196;2023-03-20T12:59:21;100622.06999999999;;;11.97;76.93
68145;BME280;55400;51.824;-0.196;2023-03-20T13:03:25;100614.0;;;11.98;76.64
68145;BME280;55400;51.824;-0.196;2023-03-20T13:07:21;100614.0;;;12.04;76.81
68145;BME280;55400;51.824;-0.196;2023-03-20T13:11:23;100606.38;;;12.09;76.61
68145;BME280;55400;51.824;-0.196;2023-03-20T13:15:23;100593.75;;;12.10;76.56
68145;BME280;55400;51.824;-0.196;2023-03-20T13:19:23;100601.29;;;12.11;76.89
68145;BME280;55400;51.824;-0.196;2023-03-20T13:23:22;100596.41;;;12.18;76.89
68145;BME280;55400;51.824;-0.196;2023-03-20T13:27:25;100589.87;;;12.20;76.36
68145;BME280;55400;51.824;-0.196;2023-03-20T13:31:24;100584.34;;;12.16;76.28
68145;BME280;55400;51.824;-0.196;2023-03-20T13:35:24;100587.26000000001;;;12.22;76.40
68145;BME280;55400;51.824;-0.196;2023-03-20T13:39:21;100582.79;;;12.28;76.57
68145;BME280;55400;51.824;-0.196;2023-03-20T13:43:23;100582.79;;;12.32;76.26
68145;BME280;55400;51.824;-0.196;2023-03-20T13:47:21;100571.39;;;12.42;76.34
68145;BME280;55400;51.824;-0.196;2023-03-20T13:51:22;100577.92;;;12.44;75.98
68145;BME280;55400;51.824;-0.196;2023-03-20T13:55:22;100577.92;;;12.39;75.98
68145;BME280;55400;51.824;-0.196;2023-03-20T13:59:27;100579.13;;;12.41;76.25
68145;BME280;55400;51.824;-0.196;2023-03-20T14:03:23;100567.81;;;12.37;76.11
68145;BME280;55400;51.824;-0.196;2023-03-20T14:07:25;100567.81;;;12.38;76.11
68145;BME280;55400;51.824;-0.196;2023-03-20T14:11:25;100576.48000000001;;;12.33;76.11
68145;BME280;55400;51.824;-0.196;2023-03-20T14:15:21;100567.64;;;12.29;76.07
68145;BME280;55400;51.824;-0.196;2023-03-20T14:19:23;100567.52;;;12.27;76.07
68145;BME280;55400;51.824;-0.196;2023-03-20T14:23:27;100567.52;;;12.32;76.44
68145;BME280;55400;51.824;-0.196;2023-03-20T14:27:22;100567.39;;;12.35;76.08
68145;BME280;55400;51.824;-0.196;2023-03-20T14:31:22;100563.62000000001;;;12.36;75.89
68145;BME280;55400;51.824;-0.196;2023-03-20T14:35:22;100553.44;;;12.33;75.89
68145;BME280;55400;51.824;-0.196;2023-03-20T14:39:25;100558.32;;;12.34;76.03
68145;BME280;55400;51.824;-0.196;2023-03-20T14:43:24;100558.32;;;12.33;75.88
68145;BME280;55400;51.824;-0.196;2023-03-20T14:47:24;100562.45;;;12.35;76.10
68145;BME280;55400;51.824;-0.196;2023-03-20T14:51:23;100555.67;;;12.37;76.08
68145;BME280;55400;51.824;-0.196;2023-03-20T14:59:21;100554.03;;;12.47;75.86
68145;BME280;55400;51.824;-0.196;2023-03-20T15:07:22;100555.89;;;12.49;76.02
68145;BME280;55400;51.824;-0.196;2023-03-20T15:11:21;100552.29000000001;;;12.53;75.93
68145;BME280;55400;51.824;-0.196;2023-03-20T15:15:22;100552.29000000001;;;12.55;76.20
68145;BME280;55400;51.824;-0.196;2023-03-20T15:19:21;100552.18;;;12.49;76.29
68145;BME280;55400;51.824;-0.196;2023-03-20T15:23:21;100552.59;;;12.47;76.48
68145;BME280;55400;51.824;-0.196;2023-03-20T15:27:21;100547.0;;;12.40;78.32
68145;BME280;55400;51.824;-0.196;2023-03-20T15:31:22;100543.76;;;12.36;78.32
68145;BME280;55400;51.824;-0.196;2023-03-20T15:35:22;100536.84;;;12.34;78.42
68145;BME280;55400;51.824;-0.196;2023-03-20T15:43:21;100540.54;;;12.32;78.48
68145;BME280;55400;51.824;-0.196;2023-03-20T15:47:21;100540.54;;;12.28;78.83
68145;BME280;55400;51.824;-0.196;2023-03-20T15:51:21;100533.78;;;12.29;78.94
68145;BME280;55400;51.824;-0.196;2023-03-20T15:55:21;100529.88;;;12.28;78.71
68145;BME280;55400;51.824;-0.196;2023-03-20T15:59:22;100528.0;;;12.32;78.46
68145;BME280;55400;51.824;-0.196;2023-03-20T16:03:21;100525.69;;;12.26;78.93
68145;BME280;55400;51.824;-0.196;2023-03-20T16:07:22;100526.78;;;12.12;78.93
68145;BME280;55400;51.824;-0.196;2023-03-20T16:11:21;100526.2;;;12.04;80.08
68145;BME280;55400;51.824;-0.196;2023-03-20T16:15:22;100529.74;;;12.02;79.86
68145;BME280;55400;51.824;-0.196;2023-03-20T16:19:22;100526.92;;;11.97;80.14
68145;BME280;55400;51.824;-0.196;2023-03-20T16:23:26;100526.92;;;11.91;80.14
68145;BME280;55400;51.824;-0.196;2023-03-20T16:27:23;100529.67;;;11.83;80.51
68145;BME280;55400;51.824;-0.196;2023-03-20T16:31:22;100529.67;;;11.77;80.66
68145;BME280;55400;51.824;-0.196;2023-03-20T16:35:24;100519.42;;;11.68;80.74
68145;BME280;55400;51.824;-0.196;2023-03-20T16:39:22;100522.46;;;11.66;81.36
68145;BME280;55400;51.824;-0.196;2023-03-20T16:43:22;100524.15;;;11.62;81.47
68145;BME280;55400;51.824;-0.196;2023-03-20T16:47:22;100515.78;;;11.54;81.01
68145;BME280;55400;51.824;-0.196;2023-03-20T16:55:22;100513.47;;;11.48;80.90
68145;BME280;55400;51.824;-0.196;2023-03-20T16:59:21;100517.74;;;11.41;81.41
68145;BME280;55400;51.824;-0.196;2023-03-20T17:03:24;100523.33;;;11.32;81.72
68145;BME280;55400;51.824;-0.196;2023-03-20T17:07:22;100513.59999999999;;;11.34;81.42
68145;BME280;55400;51.824;-0.196;2023-03-20T17:11:26;100513.59999999999;;;11.32;81.33
68145;BME280;55400;51.824;-0.196;2023-03-20T17:15:22;100511.84;;;11.34;81.83
68145;BME280;55400;51.824;-0.196;2023-03-20T17:19:22;100511.84;;;11.32;81.83
68145;BME280;55400;51.824;-0.196;2023-03-20T17:23:21;100512.19;;;11.35;81.56
68145;BME280;55400;51.824;-0.196;2023-03-20T17:27:21;100517.78;;;11.32;81.08
68145;BME280;55400;51.824;-0.196;2023-03-20T17:31:21;100511.31;;;11.31;81.61
68145;BME280;55400;51.824;-0.196;2023-03-20T17:35:21;100519.34;;;11.32;81.83
68145;BME280;55400;51.824;-0.196;2023-03-20T17:39:21;100518.73000000001;;;11.49;81.50
68145;BME280;55400;51.824;-0.196;2023-03-20T17:43:21;100518.73000000001;;;11.68;81.27
68145;BME280;55400;51.824;-0.196;2023-03-20T17:47:22;100518.11;;;11.76;80.83
68145;BME280;55400;51.824;-0.196;2023-03-20T17:51:21;100512.09999999999;;;11.87;80.75
68145;BME280;55400;51.824;-0.196;2023-03-20T17:55:21;100515.77;;;11.99;80.21
68145;BME280;55400;51.824;-0.196;2023-03-20T17:59:21;100517.7;;;12.05;79.97
68145;BME280;55400;51.824;-0.196;2023-03-20T18:03:21;100520.84;;;12.02;79.70
68145;BME280;55400;51.824;-0.196;2023-03-20T18:07:21;100520.75;;;12.01;79.53
68145;BME280;55400;51.824;-0.196;2023-03-20T18:11:21;100519.69;;;11.98;79.53
68145;BME280;55400;51.824;-0.196;2023-03-20T18:15:21;100507.59000000001;;;11.93;79.53
68145;BME280;55400;51.824;-0.196;2023-03-20T18:19:22;100507.59000000001;;;11.90;79.53
68145;BME280;55400;51.824;-0.196;2023-03-20T18:23:21;100510.14;;;11.87;79.52
68145;BME280;55400;51.824;-0.196;2023-03-20T18:27:21;100512.75;;;11.86;79.62
68145;BME280;55400;51.824;-0.196;2023-03-20T18:39:22;100515.09;;;11.80;79.69
68145;BME280;55400;51.824;-0.196;2023-03-20T18:43:21;100516.71;;;11.77;80.11
68145;BME280;55400;51.824;-0.196;2023-03-20T18:47:21;100514.42;;;11.69;80.69
68145;BME280;55400;51.824;-0.196;2023-03-20T18:55:22;100511.42;;;11.68;80.95
68145;BME280;55400;51.824;-0.196;2023-03-20T18:59:21;100508.72;;;11.71;81.14
68145;BME280;55400;51.824;-0.196;2023-03-20T19:07:22;100509.39;;;11.73;81.10
68145;BME280;55400;51.824;-0.196;2023-03-20T19:19:21;100504.85;;;11.69;80.83
68145;BME280;55400;51.824;-0.196;2023-03-20T19:23:22;100504.85;;;11.68;80.83
68145;BME280;55400;51.824;-0.196;2023-03-20T19:27:22;100505.40999999999;;;11.61;80.79
68145;BME280;55400;51.824;-0.196;2023-03-20T19:31:22;100505.40999999999;;;11.52;80.79
68145;BME280;55400;51.824;-0.196;2023-03-20T19:35:22;100504.63;;;11.47;80.74
68145;BME280;55400;51.824;-0.196;2023-03-20T19:39:22;100503.16;;;11.35;80.87
68145;BME280;55400;51.824;-0.196;2023-03-20T19:43:22;100503.16;;;11.31;80.87
68145;BME280;55400;51.824;-0.196;2023-03-20T19:47:22;100509.38;;;11.24;80.95
68145;BME280;55400;51.824;-0.196;2023-03-20T19:51:22;100511.39;;;11.19;80.97
68145;BME280;55400;51.824;-0.196;2023-03-20T19:55:22;100508.34;;;11.23;81.08
68145;BME280;55400;51.824;-0.196;2023-03-20T19:59:22;100508.34;;;11.25;81.08
68145;BME280;55400;51.824;-0.196;2023-03-20T20:03:22;100506.76;;;11.24;80.69
68145;BME280;55400;51.824;-0.196;2023-03-20T20:07:22;100500.19;;;11.22;80.69
68145;BME280;55400;51.824;-0.196;2023-03-20T20:11:22;100499.11;;;11.20;80.68
68145;BME280;55400;51.824;-0.196;2023-03-20T20:19:22;100494.3;;;11.11;80.39
68145;BME280;55400;51.824;-0.196;2023-03-20T20:23:22;100494.3;;;11.09;80.53
68145;BME280;55400;51.824;-0.196;2023-03-20T20:27:22;100483.95000000001;;;11.13;80.56
68145;BME280;55400;51.824;-0.196;2023-03-20T20:31:26;100484.22;;;11.10;80.56
68145;BME280;55400;51.824;-0.196;2023-03-20T20:35:22;100484.22;;;11.11;80.37
68145;BME280;55400;51.824;-0.196;2023-03-20T20:39:22;100484.03;;;11.07;80.24
68145;BME280;55400;51.824;-0.196;2023-03-20T20:43:22;100479.02;;;11.10;80.41
68145;BME280;55400;51.824;-0.196;2023-03-20T20:51:22;100476.36;;;11.11;80.34
68145;BME280;55400;51.824;-0.196;2023-03-20T20:55:22;100471.40000000001;;;11.06;79.98
68145;BME280;55400;51.824;-0.196;2023-03-20T20:59:22;100471.40000000001;;;11.10;80.09
68145;BME280;55400;51.824;-0.196;2023-03-20T21:03:22;100464.34000000001;;;11.11;79.90
68145;BME280;55400;51.824;-0.196;2023-03-20T21:11:22;100452.45;;;11.03;79.96
68145;BME280;55400;51.824;-0.196;2023-03-20T21:15:22;100442.76999999999;;;11.02;79.90
68145;BME280;55400;51.824;-0.196;2023-03-20T21:19:22;100442.76999999999;;;11.05;79.90
68145;BME280;55400;51.824;-0.196;2023-03-20T21:23:22;100442.55;;;10.98;79.79
68145;BME280;55400;51.824;-0.196;2023-03-20T21:27:22;100443.28;;;11.04;79.94
68145;BME280;55400;51.824;-0.196;2023-03-20T21:35:22;100436.76000000001;;;11.03;79.62
68145;BME280;55400;51.824;-0.196;2023-03-20T21:39:22;100434.44;;;11.00;79.63
68145;BME280;55400;51.824;-0.196;2023-03-20T21:43:22;100434.44;;;10.95;79.66
68145;BME280;55400;51.824;-0.196;2023-03-20T21:47:22;100438.81999999999;;;10.92;79.72
68145;BME280;55400;51.824;-0.196;2023-03-20T21:51:22;100437.56;;;10.93;79.87
68145;BME280;55400;51.824;-0.196;2023-03-20T21:55:22;100434.84;;;10.91;79.60
68145;BME280;55400;51.824;-0.196;2023-03-20T21:59:22;100428.81;;;10.85;79.52
68145;BME280;55400;51.824;-0.196;2023-03-20T22:03:22;100428.81;;;10.88;79.80
68145;BME280;55400;51.824;-0.196;2023-03-20T22:07:22;100436.08;;;10.87;79.65
68145;BME280;55400;51.824;-0.196;2023-03-20T22:11:22;100436.08;;;10.88;79.60
68145;BME280;55400;51.824;-0.196;2023-03-20T22:15:22;100435.56999999999;;;10.87;79.48
68145;BME280;55400;51.824;-0.196;2023-03-20T22:19:22;100435.56999999999;;;10.88;79.47
68145;BME280;55400;51.824;-0.196;2023-03-20T22:23:22;100434.66;;;10.85;79.37
68145;BME280;55400;51.824;-0.196;2023-03-20T22:27:22;100434.66;;;10.80;79.37
68145;BME280;55400;51.824;-0.196;2023-03-20T22:31:22;100424.08;;;10.85;79.58
68145;BME280;55400;51.824;-0.196;2023-03-20T22:39:22;100414.06;;;10.88;79.59
68145;BME280;55400;51.824;-0.196;2023-03-20T22:43:22;100404.58;;;10.90;79.51
68145;BME280;55400;51.824;-0.196;2023-03-20T22:47:22;100407.28;;;10.85;79.51